Time;durP1;ratioP1;P1;durP2;ratioP2;P2;SDS_P1;SDS_P2;PMS_P1;PMS_P2;Temp;Humidity;BMP_temperature;BMP_pressure;BME280_temperature;BME280_humidity;BME280_pressure;Samples;Min_cycle;Max_cycle;Signal;HPM_P1;HPM_P2
2022/06/11 00:01:46;;;;;;;17.43;11.37;;;17.00;99.90;;;;;;5057630;28;20449;-76
2022/06/11 00:04:14;;;;;;;16.47;11.73;;;17.00;99.90;;;;;;5061772;28;20048;-76
2022/06/11 00:06:44;;;;;;;16.87;12.00;;;16.90;99.90;;;;;;5063126;28;20041;-76
2022/06/11 00:09:11;;;;;;;20.73;12.50;;;16.80;99.90;;;;;;5072235;28;20050;-76
2022/06/11 00:11:37;;;;;;;20.37;11.83;;;16.70;99.90;;;;;;5036759;28;20053;-76
2022/06/11 00:14:05;;;;;;;18.90;10.77;;;16.70;99.90;;;;;;5068306;28;20036;-76
2022/06/11 00:16:31;;;;;;;21.50;13.10;;;16.70;99.90;;;;;;5030951;28;20049;-76
2022/06/11 00:18:58;;;;;;;22.47;13.73;;;16.60;99.90;;;;;;5071113;28;20585;-76
2022/06/11 00:21:25;;;;;;;19.50;12.93;;;16.60;99.90;;;;;;5047428;28;20100;-76
2022/06/11 00:23:51;;;;;;;16.40;10.63;;;16.60;99.90;;;;;;5047703;28;20410;-76
2022/06/11 00:26:18;;;;;;;15.87;11.67;;;16.60;99.90;;;;;;5029683;28;20121;-76
2022/06/11 00:28:44;;;;;;;14.77;10.67;;;16.50;99.90;;;;;;5037411;28;20120;-76
2022/06/11 00:31:11;;;;;;;18.67;11.70;;;16.50;99.90;;;;;;5038472;28;20127;-76
2022/06/11 00:33:38;;;;;;;19.37;10.87;;;16.50;99.90;;;;;;5053225;28;20098;-76
2022/06/11 00:36:05;;;;;;;18.40;10.43;;;16.50;99.90;;;;;;5018125;28;20060;-76
2022/06/11 00:38:31;;;;;;;17.00;11.43;;;16.50;99.90;;;;;;5027344;28;20049;-76
2022/06/11 00:40:56;;;;;;;18.87;12.57;;;16.40;99.90;;;;;;5029267;28;20051;-75
2022/06/11 00:43:25;;;;;;;15.37;11.00;;;16.40;99.90;;;;;;5013191;28;20041;-75
2022/06/11 00:45:58;;;;;;;15.53;10.87;;;16.30;99.90;;;;;;5038405;28;20052;-75
2022/06/11 00:48:30;;;;;;;18.05;11.48;;;16.30;99.90;;;;;;5036631;28;20473;-76
2022/06/11 00:50:59;;;;;;;22.83;12.67;;;16.20;99.90;;;;;;5038560;28;20056;-76
2022/06/11 00:53:39;;;;;;;17.63;10.60;;;16.10;99.90;;;;;;5016631;28;20482;-76
2022/06/11 00:56:11;;;;;;;13.57;10.50;;;16.10;99.90;;;;;;5040351;28;20041;-76
2022/06/11 00:58:41;;;;;;;14.53;10.70;;;16.00;99.90;;;;;;5053991;28;20504;-76
2022/06/11 01:01:07;;;;;;;15.50;10.30;;;16.00;99.90;;;;;;5047144;28;20147;-76
2022/06/11 01:03:38;;;;;;;18.43;11.30;;;15.90;99.90;;;;;;5031806;28;20037;-76
2022/06/11 01:06:13;;;;;;;18.17;12.23;;;15.90;99.90;;;;;;5036353;28;20091;-76
2022/06/11 01:08:58;;;;;;;18.87;12.20;;;15.80;99.90;;;;;;5053164;28;20055;-76
2022/06/11 01:11:37;;;;;;;18.93;12.80;;;15.70;99.90;;;;;;5047221;28;20052;-76
2022/06/11 01:14:21;;;;;;;18.23;12.67;;;15.70;99.90;;;;;;5040123;28;20045;-76
2022/06/11 01:16:56;;;;;;;22.07;13.87;;;15.70;99.90;;;;;;5040560;28;20032;-76
2022/06/11 01:20:07;;;;;;;18.27;11.20;;;15.80;99.90;;;;;;5055215;28;20037;-76
2022/06/11 01:22:48;;;;;;;17.50;10.07;;;15.80;99.90;;;;;;5031777;28;20132;-76
2022/06/11 01:25:27;;;;;;;13.33;9.90;;;15.80;99.90;;;;;;5027629;28;20403;-76
2022/06/11 01:28:18;;;;;;;14.60;10.17;;;15.80;99.90;;;;;;5050341;28;20123;-75
2022/06/11 01:30:50;;;;;;;15.50;10.33;;;15.70;99.90;;;;;;5037747;28;20071;-76
2022/06/11 01:33:26;;;;;;;11.87;8.53;;;15.70;99.90;;;;;;5041076;28;20930;-76
2022/06/11 01:35:59;;;;;;;10.93;9.83;;;15.60;99.90;;;;;;5025021;28;20084;-76
2022/06/11 01:38:27;;;;;;;;;;;15.60;99.90;;;;;;5050090;28;20388;-76
2022/06/11 01:41:01;;;;;;;11.47;9.27;;;15.50;99.90;;;;;;5036735;28;19962;-76
2022/06/11 01:43:32;;;;;;;17.70;10.77;;;15.40;99.90;;;;;;5028816;28;20561;-76
2022/06/11 01:46:05;;;;;;;18.63;12.23;;;15.30;99.90;;;;;;5027429;28;20041;-76
2022/06/11 01:48:31;;;;;;;14.37;11.70;;;15.30;99.90;;;;;;5032170;28;20052;-76
2022/06/11 01:51:15;;;;;;;18.53;11.37;;;15.20;99.90;;;;;;5052976;28;20036;-76
2022/06/11 01:53:59;;;;;;;17.50;10.70;;;15.20;99.90;;;;;;5034203;28;20039;-76
2022/06/11 01:56:44;;;;;;;18.83;11.68;;;15.20;99.90;;;;;;5027450;28;20036;-76
2022/06/11 01:59:33;;;;;;;14.30;12.13;;;15.20;99.90;;;;;;5043986;28;20041;-75
2022/06/11 02:02:14;;;;;;;21.93;12.63;;;15.10;99.90;;;;;;5030772;28;20040;-76
2022/06/11 02:04:49;;;;;;;19.93;14.30;;;15.10;99.90;;;;;;5032548;28;20052;-76
2022/06/11 02:07:20;;;;;;;15.23;13.57;;;15.20;99.90;;;;;;5019173;28;20037;-75
2022/06/11 02:10:05;;;;;;;19.20;13.90;;;15.10;99.90;;;;;;5027126;28;20040;-76
2022/06/11 02:12:38;;;;;;;18.70;14.07;;;15.10;99.90;;;;;;5036820;28;20036;-75
2022/06/11 02:15:11;;;;;;;20.80;13.70;;;15.10;99.90;;;;;;5028617;28;20040;-76
2022/06/11 02:17:43;;;;;;;20.08;13.45;;;15.10;99.90;;;;;;5026312;28;20037;-75
2022/06/11 02:20:13;;;;;;;20.37;14.20;;;15.20;99.90;;;;;;5047455;28;20122;-75
2022/06/11 02:22:45;;;;;;;16.80;13.40;;;15.20;99.90;;;;;;5058889;28;20044;-75
2022/06/11 02:25:15;;;;;;;19.60;13.13;;;15.20;99.90;;;;;;5045189;28;20445;-76
2022/06/11 02:27:43;;;;;;;19.10;13.03;;;15.30;99.90;;;;;;5073339;28;20082;-77
2022/06/11 02:30:12;;;;;;;19.67;13.50;;;15.30;99.90;;;;;;5049264;28;20041;-77
2022/06/11 02:32:40;;;;;;;17.17;12.83;;;15.40;99.90;;;;;;5065844;28;20125;-77
2022/06/11 02:35:08;;;;;;;19.67;12.53;;;15.40;99.90;;;;;;5062344;28;20052;-77
2022/06/11 02:37:37;;;;;;;18.30;12.33;;;15.50;99.90;;;;;;5068288;28;20090;-77
2022/06/11 02:40:08;;;;;;;19.83;11.47;;;15.50;99.90;;;;;;5068641;28;20051;-77
2022/06/11 02:42:34;;;;;;;21.53;11.10;;;15.50;99.90;;;;;;5053621;28;20071;-78
2022/06/11 02:45:00;;;;;;;20.03;11.40;;;15.50;99.90;;;;;;5027384;28;20075;-77
2022/06/11 02:47:26;;;;;;;19.13;10.33;;;15.50;99.90;;;;;;5045616;28;20096;-76
2022/06/11 02:49:54;;;;;;;15.83;9.60;;;15.50;99.90;;;;;;5040266;28;20041;-77
2022/06/11 02:52:22;;;;;;;18.87;9.37;;;15.50;99.90;;;;;;5061972;28;20055;-77
2022/06/11 02:54:49;;;;;;;18.43;10.47;;;15.50;99.90;;;;;;5059967;28;20122;-77
2022/06/11 02:57:18;;;;;;;15.57;9.77;;;15.50;99.90;;;;;;5060495;28;20064;-77
2022/06/11 02:59:44;;;;;;;16.83;9.40;;;15.50;99.90;;;;;;5068044;28;20123;-76
2022/06/11 03:02:11;;;;;;;17.97;9.60;;;15.50;99.90;;;;;;5043748;28;20040;-77
2022/06/11 03:04:37;;;;;;;18.13;9.67;;;15.50;99.90;;;;;;5039559;28;20052;-76
2022/06/11 03:07:08;;;;;;;16.50;10.50;;;15.40;99.90;;;;;;5067296;28;20037;-77
2022/06/11 03:09:35;;;;;;;18.80;11.27;;;15.40;99.90;;;;;;5075476;28;20056;-76
2022/06/11 03:12:02;;;;;;;20.37;12.07;;;15.40;99.90;;;;;;5057403;28;20421;-76
2022/06/11 03:14:28;;;;;;;17.00;11.50;;;15.40;99.90;;;;;;5070121;28;20040;-77
2022/06/11 03:16:53;;;;;;;23.90;11.60;;;15.40;99.90;;;;;;5071445;28;20509;-76
2022/06/11 03:19:21;;;;;;;21.07;12.77;;;15.40;99.90;;;;;;5066053;28;20044;-76
2022/06/11 03:21:47;;;;;;;21.77;11.97;;;15.40;99.90;;;;;;5046348;28;20124;-77
2022/06/11 03:24:15;;;;;;;19.67;12.33;;;15.40;99.90;;;;;;5066932;28;20398;-77
2022/06/11 03:26:40;;;;;;;20.67;12.80;;;15.40;99.90;;;;;;5070364;28;20037;-77
2022/06/11 03:29:08;;;;;;;20.03;12.97;;;15.30;99.90;;;;;;5058652;28;20095;-76
2022/06/11 03:31:34;;;;;;;18.60;13.17;;;15.30;99.90;;;;;;5038356;28;20067;-76
2022/06/11 03:34:00;;;;;;;20.90;14.00;;;15.30;99.90;;;;;;5047755;28;20429;-77
2022/06/11 03:36:25;;;;;;;23.30;14.97;;;15.20;99.90;;;;;;5054871;28;20044;-78
2022/06/11 03:38:51;;;;;;;23.93;14.30;;;15.20;99.90;;;;;;5067366;28;20048;-76
2022/06/11 03:41:21;;;;;;;20.10;14.20;;;15.20;99.90;;;;;;5055823;28;20039;-77
2022/06/11 03:43:48;;;;;;;22.00;14.37;;;15.10;99.90;;;;;;5064360;28;20510;-77
2022/06/11 03:46:14;;;;;;;19.33;13.93;;;15.20;99.90;;;;;;5047367;28;20466;-77
2022/06/11 03:48:40;;;;;;;16.20;12.03;;;15.10;99.90;;;;;;5046270;28;20122;-77
2022/06/11 03:51:07;;;;;;;21.37;12.67;;;15.20;99.90;;;;;;5051122;28;20563;-77
2022/06/11 03:53:34;;;;;;;20.57;11.80;;;15.10;99.90;;;;;;5045385;28;20041;-76
2022/06/11 03:56:01;;;;;;;16.50;11.17;;;15.10;99.90;;;;;;5071552;28;20122;-77
2022/06/11 03:58:28;;;;;;;19.30;11.13;;;15.20;99.90;;;;;;5046796;28;20051;-77
2022/06/11 04:03:43;;;;;;;17.03;9.97;;;15.20;99.90;;;;;;5072006;28;20051;-78
2022/06/11 04:06:09;;;;;;;16.97;10.23;;;15.20;99.90;;;;;;5048901;28;20150;-77
2022/06/11 04:08:36;;;;;;;15.97;8.63;;;15.20;99.90;;;;;;5029075;28;20132;-77
2022/06/11 04:11:03;;;;;;;15.80;8.50;;;15.20;99.90;;;;;;5049562;28;20178;-76
2022/06/11 04:13:33;;;;;;;19.73;9.43;;;15.20;99.90;;;;;;5085183;28;20138;-77
2022/06/11 04:16:00;;;;;;;20.03;8.97;;;15.20;99.90;;;;;;5072033;28;20080;-77
2022/06/11 04:18:32;;;;;;;18.07;8.00;;;15.20;99.90;;;;;;5023169;28;20052;-77
2022/06/11 04:20:57;;;;;;;16.63;7.83;;;15.20;99.90;;;;;;5061593;28;20044;-76
2022/06/11 04:23:24;;;;;;;16.33;8.13;;;15.20;99.90;;;;;;5049529;28;20582;-79
2022/06/11 04:25:50;;;;;;;14.83;7.20;;;15.20;99.90;;;;;;5045474;28;20032;-76
2022/06/11 04:28:16;;;;;;;15.10;7.10;;;15.20;99.90;;;;;;5040479;28;20413;-77
2022/06/11 04:30:43;;;;;;;14.87;6.43;;;15.20;99.90;;;;;;5053120;28;20040;-75
2022/06/11 04:33:09;;;;;;;17.60;6.90;;;15.20;99.90;;;;;;5056484;28;20060;-77
2022/06/11 04:35:35;;;;;;;17.03;5.93;;;15.20;99.90;;;;;;5058282;28;20498;-76
2022/06/11 04:38:01;;;;;;;15.77;5.30;;;15.20;99.90;;;;;;5048260;28;20421;-78
2022/06/11 04:40:27;;;;;;;15.03;5.63;;;15.20;99.90;;;;;;5071892;28;20524;-77
2022/06/11 04:42:52;;;;;;;17.90;5.83;;;15.20;99.90;;;;;;5065615;28;20044;-77
2022/06/11 04:45:18;;;;;;;22.67;5.93;;;15.20;99.90;;;;;;5038366;28;20124;-77
2022/06/11 04:47:45;;;;;;;15.47;5.07;;;15.20;99.90;;;;;;5050000;28;20052;-77
2022/06/11 04:50:14;;;;;;;15.73;5.33;;;15.20;99.90;;;;;;5050447;28;20131;-78
2022/06/11 04:52:40;;;;;;;21.83;5.00;;;15.20;99.90;;;;;;5034697;28;20048;-77
2022/06/11 04:55:07;;;;;;;17.83;4.97;;;15.20;99.90;;;;;;5049057;28;20044;-78
2022/06/11 04:57:33;;;;;;;19.47;5.03;;;15.20;99.90;;;;;;5036036;28;20071;-77
2022/06/11 04:59:59;;;;;;;19.17;4.63;;;15.20;99.90;;;;;;5068384;28;20040;-78
2022/06/11 05:02:25;;;;;;;17.87;4.10;;;15.20;99.90;;;;;;5038369;28;20490;-78
2022/06/11 05:04:53;;;;;;;15.23;4.27;;;15.20;99.90;;;;;;5068372;28;20093;-76
2022/06/11 05:07:18;;;;;;;18.83;3.97;;;15.30;99.90;;;;;;5055057;28;20532;-78
2022/06/11 05:09:44;;;;;;;23.33;4.50;;;15.40;99.90;;;;;;5061183;28;20387;-77
2022/06/11 05:12:11;;;;;;;20.00;4.50;;;15.50;99.90;;;;;;5042669;28;20055;-78
2022/06/11 05:14:37;;;;;;;20.73;4.47;;;15.50;99.90;;;;;;5038476;28;20032;-77
2022/06/11 05:17:04;;;;;;;15.37;3.90;;;15.40;99.90;;;;;;5016955;28;20120;-76
2022/06/11 05:19:29;;;;;;;22.67;4.70;;;15.50;99.90;;;;;;5069901;28;20506;-76
2022/06/11 05:21:58;;;;;;;23.90;4.93;;;15.50;99.90;;;;;;5040576;28;20040;-77
2022/06/11 05:24:24;;;;;;;19.73;4.33;;;15.50;99.90;;;;;;5060722;28;20136;-77
2022/06/11 05:26:53;;;;;;;16.73;4.00;;;15.60;99.90;;;;;;5056877;28;20102;-79
2022/06/11 05:29:23;;;;;;;16.67;4.07;;;15.70;99.90;;;;;;5041125;28;20307;-78
2022/06/11 05:31:49;;;;;;;14.67;4.33;;;16.00;99.90;;;;;;5018147;28;20048;-79
2022/06/11 05:34:14;;;;;;;25.97;4.73;;;16.50;99.90;;;;;;5037872;28;20044;-78
2022/06/11 05:36:40;;;;;;;18.90;3.63;;;16.70;99.90;;;;;;5055262;28;20081;-78
2022/06/11 05:39:09;;;;;;;20.10;4.93;;;16.70;99.90;;;;;;5022247;28;20095;-79
2022/06/11 05:41:35;;;;;;;20.13;4.53;;;16.50;99.90;;;;;;5042985;28;20044;-77
2022/06/11 05:44:01;;;;;;;19.63;4.80;;;16.40;99.90;;;;;;5056985;28;20490;-75
2022/06/11 05:46:28;;;;;;;20.87;4.23;;;16.20;99.90;;;;;;5051231;28;20082;-77
2022/06/11 05:48:59;;;;;;;19.33;4.43;;;16.20;99.90;;;;;;5046274;28;20044;-79
2022/06/11 05:51:29;;;;;;;22.03;4.40;;;16.10;99.90;;;;;;5039639;28;20143;-76
2022/06/11 05:53:56;;;;;;;17.63;4.83;;;16.10;99.90;;;;;;5039019;28;20662;-78
2022/06/11 05:56:24;;;;;;;22.10;4.90;;;16.20;99.90;;;;;;5074475;28;20439;-77
2022/06/11 05:58:54;;;;;;;16.77;4.50;;;16.20;99.90;;;;;;5073274;28;20066;-77
2022/06/11 06:01:25;;;;;;;18.80;4.60;;;16.30;99.90;;;;;;5028526;28;20456;-77
2022/06/11 06:03:51;;;;;;;20.77;4.93;;;16.50;99.90;;;;;;5046939;28;20451;-78
2022/06/11 06:06:17;;;;;;;23.97;4.70;;;16.60;99.90;;;;;;5044246;28;20045;-78
2022/06/11 06:08:44;;;;;;;21.50;5.10;;;16.50;99.90;;;;;;5029447;28;20056;-79
2022/06/11 06:11:09;;;;;;;20.87;5.43;;;16.50;99.90;;;;;;5064385;28;20131;-79
2022/06/11 06:13:46;;;;;;;20.47;5.17;;;16.40;99.90;;;;;;5051640;28;20187;-77
2022/06/11 06:16:12;;;;;;;25.00;5.23;;;16.40;99.90;;;;;;5054038;28;20044;-76
2022/06/11 06:18:38;;;;;;;20.47;5.23;;;16.40;99.90;;;;;;5049685;28;20051;-79
2022/06/11 06:21:04;;;;;;;20.03;5.50;;;16.40;99.90;;;;;;5053190;28;20044;-77
2022/06/11 06:23:31;;;;;;;22.07;5.33;;;16.50;99.90;;;;;;5065796;28;20047;-77
2022/06/11 06:25:56;;;;;;;24.17;5.40;;;16.50;99.90;;;;;;5073664;28;20040;-76
2022/06/11 06:28:22;;;;;;;20.77;5.30;;;16.50;99.90;;;;;;5038413;28;20042;-77
2022/06/11 06:30:49;;;;;;;23.93;5.33;;;16.50;99.90;;;;;;5065382;28;20047;-80
2022/06/11 06:33:15;;;;;;;25.33;5.30;;;16.50;99.90;;;;;;5041878;28;20048;-79
2022/06/11 06:35:41;;;;;;;22.10;4.90;;;16.60;99.90;;;;;;5043159;28;20052;-77
2022/06/11 06:38:07;;;;;;;23.07;4.63;;;16.70;99.90;;;;;;5027701;28;20040;-79
2022/06/11 06:40:34;;;;;;;26.07;5.50;;;16.80;99.90;;;;;;5035798;28;20572;-79
2022/06/11 06:43:00;;;;;;;30.43;5.03;;;16.80;99.90;;;;;;5059270;28;20044;-76
2022/06/11 06:45:26;;;;;;;24.83;5.67;;;16.80;99.90;;;;;;5035971;28;20048;-77
2022/06/11 06:47:53;;;;;;;21.97;5.10;;;16.80;99.90;;;;;;5033380;28;20813;-78
2022/06/11 06:50:19;;;;;;;25.07;5.30;;;16.90;99.90;;;;;;5049192;28;20062;-79
2022/06/11 06:52:44;;;;;;;27.17;5.27;;;16.90;99.90;;;;;;5051245;28;20044;-77
2022/06/11 06:55:10;;;;;;;20.67;4.70;;;16.90;99.90;;;;;;5049421;28;20047;-76
2022/06/11 06:57:36;;;;;;;21.57;4.63;;;16.90;99.90;;;;;;5072485;28;20048;-78
2022/06/11 07:00:04;;;;;;;22.87;4.40;;;16.90;99.90;;;;;;5058783;28;20039;-78
2022/06/11 07:02:30;;;;;;;23.87;5.13;;;17.10;99.90;;;;;;5033975;28;20106;-78
2022/06/11 07:04:59;;;;;;;28.07;5.60;;;17.20;99.90;;;;;;5047998;28;20040;-78
2022/06/11 07:07:25;;;;;;;20.53;4.37;;;17.40;99.90;;;;;;5030132;28;20418;-79
2022/06/11 07:09:53;;;;;;;22.43;4.60;;;17.40;99.90;;;;;;5069279;28;20036;-78
2022/06/11 07:12:19;;;;;;;23.77;5.27;;;17.50;99.90;;;;;;5049597;28;20060;-78
2022/06/11 07:14:45;;;;;;;21.13;5.10;;;17.60;99.90;;;;;;5038118;28;20464;-80
2022/06/11 07:17:12;;;;;;;26.83;4.90;;;17.70;99.90;;;;;;5059878;28;20041;-79
2022/06/11 07:19:41;;;;;;;28.90;5.53;;;17.70;99.90;;;;;;5055349;28;20040;-78
2022/06/11 07:22:13;;;;;;;24.47;5.43;;;17.80;99.90;;;;;;5060261;28;20490;-78
2022/06/11 07:24:42;;;;;;;24.80;5.57;;;17.80;99.90;;;;;;5039588;28;20051;-78
2022/06/11 07:27:11;;;;;;;25.27;4.83;;;17.80;99.90;;;;;;5051838;28;20036;-80
2022/06/11 07:29:42;;;;;;;23.80;5.67;;;17.90;99.90;;;;;;5067041;28;20524;-77
2022/06/11 07:32:13;;;;;;;19.97;4.70;;;17.90;99.90;;;;;;5072222;28;20063;-80
2022/06/11 07:34:39;;;;;;;24.57;6.00;;;18.00;99.90;;;;;;5028027;28;20044;-76
2022/06/11 07:37:05;;;;;;;27.57;5.70;;;18.00;99.90;;;;;;5043678;28;20040;-78
2022/06/11 07:39:33;;;;;;;27.30;4.77;;;18.10;99.90;;;;;;5036621;28;20486;-78
2022/06/11 07:41:59;;;;;;;19.70;4.30;;;18.00;99.90;;;;;;5034043;28;20079;-78
2022/06/11 07:44:25;;;;;;;23.57;5.37;;;18.10;99.90;;;;;;5043935;28;20074;-79
2022/06/11 07:46:51;;;;;;;21.50;4.90;;;18.20;99.90;;;;;;5021933;28;20495;-78
2022/06/11 07:49:17;;;;;;;30.93;6.13;;;18.40;99.90;;;;;;5031453;28;21540;-80
2022/06/11 07:51:43;;;;;;;24.50;5.33;;;18.50;99.90;;;;;;5062123;28;20551;-78
2022/06/11 07:54:09;;;;;;;32.73;5.07;;;18.50;99.90;;;;;;5065229;28;20138;-78
2022/06/11 07:56:38;;;;;;;23.93;5.30;;;18.60;99.90;;;;;;5030010;28;20045;-76
2022/06/11 07:59:04;;;;;;;26.97;5.73;;;18.60;99.90;;;;;;5049892;28;20522;-78
2022/06/11 08:01:30;;;;;;;29.10;6.10;;;18.60;99.90;;;;;;5057399;28;20044;-79
2022/06/11 08:03:55;;;;;;;23.77;4.83;;;18.70;99.90;;;;;;5058061;28;20035;-78
2022/06/11 08:06:21;;;;;;;30.67;6.07;;;18.80;99.90;;;;;;5048933;28;20529;-77
2022/06/11 08:08:49;;;;;;;27.60;5.33;;;18.80;99.90;;;;;;5055650;28;20118;-78
2022/06/11 08:11:14;;;;;;;26.37;5.60;;;18.90;99.90;;;;;;5052212;28;20039;-77
2022/06/11 08:13:42;;;;;;;24.23;5.27;;;19.00;99.90;;;;;;5052921;28;20633;-78
2022/06/11 08:16:10;;;;;;;26.87;5.87;;;19.20;99.90;;;;;;5054006;28;20122;-81
2022/06/11 08:18:37;;;;;;;23.30;5.13;;;19.20;99.90;;;;;;5057756;28;20044;-79
2022/06/11 08:21:03;;;;;;;28.00;5.47;;;19.30;99.90;;;;;;5021341;28;20048;-76
2022/06/11 08:23:30;;;;;;;30.07;5.27;;;19.30;99.90;;;;;;5039825;28;20094;-78
2022/06/11 08:25:56;;;;;;;23.13;5.03;;;19.40;99.90;;;;;;5059978;28;20040;-78
2022/06/11 08:28:23;;;;;;;28.20;6.00;;;19.30;99.90;;;;;;5046191;28;20036;-78
2022/06/11 08:30:51;;;;;;;25.27;5.23;;;19.30;99.90;;;;;;5059356;28;20048;-78
2022/06/11 08:33:17;;;;;;;28.90;5.23;;;19.40;99.90;;;;;;5049342;28;20047;-79
2022/06/11 08:35:43;;;;;;;27.60;6.30;;;19.50;99.90;;;;;;5057630;28;20051;-78
2022/06/11 08:38:09;;;;;;;30.83;6.73;;;19.60;99.90;;;;;;5051099;28;20036;-77
2022/06/11 08:40:39;;;;;;;28.23;5.53;;;19.80;99.90;;;;;;5057430;28;20055;-79
2022/06/11 08:43:17;;;;;;;25.40;5.80;;;20.00;99.90;;;;;;5047510;28;20449;-78
2022/06/11 08:45:46;;;;;;;29.07;5.60;;;20.20;99.90;;;;;;5038912;28;20041;-78
2022/06/11 08:48:21;;;;;;;23.37;5.13;;;20.30;99.90;;;;;;5037554;28;20044;-79
2022/06/11 08:51:02;;;;;;;27.93;5.50;;;20.40;99.90;;;;;;5046965;28;20044;-79
2022/06/11 08:53:29;;;;;;;20.60;5.13;;;20.50;99.90;;;;;;5027720;28;20044;-77
2022/06/11 08:55:56;;;;;;;29.57;5.50;;;20.50;99.90;;;;;;5069037;28;20131;-79
2022/06/11 08:58:35;;;;;;;20.47;5.20;;;20.40;99.90;;;;;;5044830;28;20131;-77
2022/06/11 09:01:11;;;;;;;30.93;5.80;;;20.40;99.90;;;;;;5038442;28;20059;-79
2022/06/11 09:03:52;;;;;;;29.40;6.63;;;20.60;99.90;;;;;;5055772;28;20421;-78
2022/06/11 09:06:39;;;;;;;20.23;5.33;;;20.80;99.90;;;;;;5024695;28;20139;-77
2022/06/11 09:09:15;;;;;;;30.70;5.50;;;20.90;99.90;;;;;;5041894;28;20628;-79
2022/06/11 09:11:58;;;;;;;24.53;4.90;;;21.00;99.90;;;;;;5056394;28;20048;-78
2022/06/11 09:15:08;;;;;;;25.98;5.55;;;21.10;99.90;;;;;;5050696;28;20146;-76
2022/06/11 09:18:05;;;;;;;24.63;4.75;;;21.20;99.90;;;;;;5065567;28;20041;-78
2022/06/11 09:20:41;;;;;;;18.50;4.83;;;21.40;99.90;;;;;;5023103;28;20054;-78
2022/06/11 09:23:47;;;;;;;24.30;4.80;;;21.30;99.90;;;;;;5064829;28;20094;-79
2022/06/11 09:26:29;;;;;;;25.88;4.88;;;21.30;99.90;;;;;;4974264;28;20587;-78
2022/06/11 09:29:05;;;;;;;25.97;4.90;;;21.00;99.90;;;;;;4966886;28;20051;-78
2022/06/11 09:31:37;;;;;;;24.30;5.13;;;20.90;99.90;;;;;;5012767;28;20054;-77
2022/06/11 09:34:10;;;;;;;21.27;4.40;;;21.10;99.90;;;;;;5054080;28;20098;-78
2022/06/11 09:36:40;;;;;;;18.13;4.23;;;21.20;99.90;;;;;;5033634;28;20751;-77
2022/06/11 09:39:26;;;;;;;21.20;4.63;;;21.60;99.90;;;;;;5047888;28;20403;-78
2022/06/11 09:41:59;;;;;;;18.43;4.33;;;21.80;99.90;;;;;;5063314;28;20421;-77
2022/06/11 09:44:40;;;;;;;20.23;4.00;;;22.00;99.90;;;;;;5066671;28;20059;-77
2022/06/11 09:47:13;;;;;;;21.25;4.68;;;22.10;99.90;;;;;;5066783;28;20119;-77
2022/06/11 09:49:49;;;;;;;18.63;4.28;;;22.30;99.90;;;;;;5044135;28;20053;-78
2022/06/11 09:52:24;;;;;;;19.55;4.47;;;22.50;99.90;;;;;;5047163;28;20048;-77
2022/06/11 09:54:54;;;;;;;20.60;3.45;;;22.80;99.90;;;;;;5041645;28;20048;-78
2022/06/11 09:57:37;;;;;;;17.88;3.80;;;23.00;99.90;;;;;;5041949;28;20701;-78
2022/06/11 10:00:06;;;;;;;19.20;4.03;;;23.00;98.60;;;;;;5074299;28;20048;-78
2022/06/11 10:05:31;;;;;;;17.98;4.10;;;23.20;99.90;;;;;;5046104;28;20048;-80
2022/06/11 10:08:10;;;;;;;18.85;4.18;;;23.00;99.90;;;;;;5068180;28;20036;-79
2022/06/11 10:10:41;;;;;;;13.60;3.70;;;23.00;98.20;;;;;;5039008;28;20052;-79
2022/06/11 10:13:14;;;;;;;13.88;3.30;;;23.20;98.10;;;;;;5041357;28;20047;-78
2022/06/11 10:15:42;;;;;;;21.08;3.78;;;23.50;97.00;;;;;;5064496;28;20877;-77
2022/06/11 10:18:15;;;;;;;17.70;3.65;;;23.80;97.10;;;;;;5066964;28;20462;-78
2022/06/11 10:20:45;;;;;;;15.15;3.67;;;24.10;97.00;;;;;;5065118;28;20060;-78
2022/06/11 10:23:19;;;;;;;18.45;3.45;;;24.50;96.70;;;;;;5052923;28;20044;-79
2022/06/11 10:25:51;;;;;;;18.55;4.35;;;24.60;94.70;;;;;;5067249;28;20136;-78
2022/06/11 10:28:22;;;;;;;15.40;3.45;;;24.10;92.50;;;;;;5043388;28;20036;-77
2022/06/11 10:30:54;;;;;;;16.60;3.70;;;24.10;91.50;;;;;;5056909;28;20036;-80
2022/06/11 10:33:33;;;;;;;14.05;3.22;;;23.90;91.60;;;;;;5032892;28;20526;-78
2022/06/11 10:36:03;;;;;;;19.10;3.53;;;23.80;92.30;;;;;;5053490;28;20088;-79
2022/06/11 10:38:49;;;;;;;11.63;3.05;;;24.00;92.50;;;;;;5024469;28;20040;-79
2022/06/11 10:41:22;;;;;;;16.33;3.10;;;24.20;92.10;;;;;;5037677;28;20406;-78
2022/06/11 10:43:54;;;;;;;15.13;3.23;;;24.00;91.10;;;;;;5048503;28;20398;-76
2022/06/11 10:46:20;;;;;;;19.80;4.45;;;23.70;92.30;;;;;;5062101;28;20899;-79
2022/06/11 10:48:45;;;;;;;15.57;3.72;;;23.80;91.80;;;;;;5062996;28;20132;-78
2022/06/11 10:51:18;;;;;;;14.05;3.38;;;23.90;92.40;;;;;;5061982;28;20052;-76
2022/06/11 10:54:04;;;;;;;16.35;3.72;;;23.90;91.80;;;;;;5060901;28;20037;-79
2022/06/11 10:56:41;;;;;;;14.45;3.70;;;23.70;94.40;;;;;;5042700;28;20144;-78
2022/06/11 10:59:17;;;;;;;15.38;3.65;;;24.00;94.20;;;;;;5026993;28;20041;-78
2022/06/11 11:01:46;;;;;;;12.57;3.33;;;24.30;94.40;;;;;;5043333;28;20110;-77
2022/06/11 11:04:36;;;;;;;15.10;3.28;;;24.60;93.20;;;;;;5057971;28;20037;-78
2022/06/11 11:07:15;;;;;;;20.63;3.60;;;24.70;91.30;;;;;;5061853;28;20040;-77
2022/06/11 11:09:43;;;;;;;15.70;3.67;;;24.50;90.50;;;;;;5046177;28;20052;-79
2022/06/11 11:12:22;;;;;;;11.93;3.05;;;24.00;90.00;;;;;;5041056;28;20091;-77
2022/06/11 11:14:58;;;;;;;14.07;3.33;;;23.60;92.00;;;;;;5042884;28;20068;-76
2022/06/11 11:17:27;;;;;;;12.98;3.28;;;23.70;91.40;;;;;;5042178;28;20418;-76
2022/06/11 11:22:50;;;;;;;12.82;3.55;;;23.80;89.20;;;;;;5046746;28;20044;-78
2022/06/11 11:25:29;;;;;;;17.08;3.72;;;23.70;90.80;;;;;;5028649;28;20438;-78
2022/06/11 11:27:56;;;;;;;13.77;3.45;;;24.00;91.70;;;;;;5048659;28;20051;-78
2022/06/11 11:30:33;;;;;;;17.17;3.75;;;24.40;92.30;;;;;;5067621;28;20434;-77
2022/06/11 11:33:14;;;;;;;12.57;3.33;;;24.70;88.20;;;;;;5066432;28;20119;-78
2022/06/11 11:35:41;;;;;;;13.98;3.42;;;24.70;89.50;;;;;;5056285;28;20045;-78
2022/06/11 11:38:15;;;;;;;17.75;3.88;;;24.80;89.40;;;;;;5043220;28;20481;-77
2022/06/11 11:40:53;;;;;;;13.55;3.80;;;24.70;86.80;;;;;;5055073;28;20032;-78
2022/06/11 11:43:21;;;;;;;15.95;3.22;;;24.80;88.50;;;;;;5053001;28;20453;-76
2022/06/11 11:45:54;;;;;;;16.17;3.63;;;25.00;89.10;;;;;;5038878;28;20056;-78
2022/06/11 11:48:26;;;;;;;13.70;3.70;;;25.30;89.80;;;;;;5043397;28;20602;-78
2022/06/11 11:50:58;;;;;;;15.13;3.25;;;25.40;86.90;;;;;;5044736;28;20402;-74
2022/06/11 11:53:28;;;;;;;13.45;3.38;;;25.40;84.30;;;;;;5054393;28;20139;-76
2022/06/11 11:55:58;;;;;;;14.60;3.00;;;25.40;85.80;;;;;;5067841;28;20076;-78
2022/06/11 11:58:30;;;;;;;11.63;3.13;;;25.60;86.60;;;;;;5067216;28;20056;-80
2022/06/11 12:00:59;;;;;;;12.73;2.90;;;25.50;80.30;;;;;;5032397;28;20037;-78
2022/06/11 12:03:29;;;;;;;14.63;3.55;;;24.80;81.60;;;;;;5049562;28;20052;-77
2022/06/11 12:05:57;;;;;;;14.75;3.45;;;24.80;88.90;;;;;;5050310;28;20066;-78
2022/06/11 12:08:26;;;;;;;16.25;3.50;;;25.10;86.80;;;;;;5047965;28;20049;-78
2022/06/11 12:10:58;;;;;;;16.30;3.60;;;25.10;85.00;;;;;;5063018;28;20074;-77
2022/06/11 12:13:27;;;;;;;13.00;3.30;;;25.20;85.60;;;;;;5048203;28;20036;-79
2022/06/11 12:15:56;;;;;;;16.05;3.50;;;25.30;85.30;;;;;;5032137;28;20048;-78
2022/06/11 12:18:29;;;;;;;15.52;3.63;;;25.30;83.90;;;;;;5061709;28;20036;-76
2022/06/11 12:20:58;;;;;;;12.40;3.40;;;25.30;81.90;;;;;;5046586;28;20566;-76
2022/06/11 12:23:29;;;;;;;12.75;3.30;;;25.10;80.90;;;;;;5046806;28;20048;-76
2022/06/11 12:26:00;;;;;;;13.80;3.50;;;25.20;82.40;;;;;;5055187;28;20140;-78
2022/06/11 12:28:32;;;;;;;12.73;3.38;;;25.40;79.80;;;;;;5057818;28;20056;-75
2022/06/11 12:30:57;;;;;;;14.43;3.47;;;25.20;78.00;;;;;;5063605;28;20494;-78
2022/06/11 12:33:24;;;;;;;10.77;3.08;;;25.10;84.20;;;;;;5048583;28;20044;-77
2022/06/11 12:35:56;;;;;;;14.93;3.75;;;25.40;82.30;;;;;;5036515;28;20066;-77
2022/06/11 12:38:35;;;;;;;15.87;3.40;;;25.40;82.80;;;;;;5062440;28;20043;-75
2022/06/11 12:41:21;;;;;;;13.55;3.40;;;25.60;84.00;;;;;;5055537;28;20383;-79
2022/06/11 12:43:53;;;;;;;12.10;2.78;;;25.80;85.00;;;;;;5060850;28;20053;-77
2022/06/11 12:46:26;;;;;;;14.88;3.30;;;26.00;85.30;;;;;;5041882;28;20044;-78
2022/06/11 12:48:54;;;;;;;;;;;26.10;79.60;;;;;;5052875;28;20044;-78
2022/06/11 12:51:31;;;;;;;10.13;3.00;;;25.80;79.50;;;;;;5045610;28;19947;-78
2022/06/11 12:53:59;;;;;;;12.45;3.50;;;25.70;79.00;;;;;;5020657;28;20410;-77
2022/06/11 12:56:54;;;;;;;17.25;4.38;;;25.90;80.40;;;;;;5047868;28;20047;-76
2022/06/11 12:59:44;;;;;;;17.80;3.40;;;26.00;81.80;;;;;;5036062;28;20048;-78
2022/06/11 13:02:23;;;;;;;17.02;3.58;;;26.20;82.20;;;;;;5053013;28;20128;-78